Arden, North Carolina
Current Conditions -  °F | °C
As of 6:54 PM on Saturday 25 Oct 2014 (Local Time) from KAVL Reporting Station
Clear Clear  
Wind Chill: 62°   Ceiling: Unl
Heat Index: 62°   Visibility: 10mi
Dew Point: 45°   Wind: 8mph
Humidity: 53%   Direction: 300°WNW
Pressure: 30.02"   Gusts: NA
Location:  35.47°N, 82.52°W
Report Text: KAVL 252254Z 30007KT 10SM CLR 17/07 A3002 RMK AO2 SLP157 T01670072
Loading
Personal Weather Stations






























Interactive Weather Map New forecast layout! Learn more

10-Day Weather Forecast

Advertisements
Track Severe Weather on mobile